Terminal Aerodrome Forecast
Issued by NWS

Home | Current Version | Previous Version | Text Only | Print | Product List | Glossary Off
Versions: 1 2 3 4 5 6 7 8 9 10 11 12 13 14 15 16 17 18

000
FTUS43 KFGF 191020 AAB
TAFBJI
TAF AMD
KBJI 191020Z 1910/2006 17006KT P6SM SKC
      TEMPO 1911/1912 1SM BR
     FM191200 17007KT 1/4SM FZFG BKN002
     FM191500 17008KT P6SM SCT010
      TEMPO 1915/1917 3SM BR BKN010
     FM192300 18007KT P6SM BKN035
     FM200000 18006KT P6SM BKN025
     FM200100 18006KT P6SM BKN015
     FM200300 17006KT P6SM BKN008=

USA.gov is the U.S. government's official web portal to all federal, state and local government web resources and services.